Time;durP1;ratioP1;P1;durP2;ratioP2;P2;SDS_P1;SDS_P2;PMS_P1;PMS_P2;Temp;Humidity;BMP_temperature;BMP_pressure;BME280_temperature;BME280_humidity;BME280_pressure;Samples;Min_cycle;Max_cycle;Signal;HPM_P1;HPM_P2
2022/01/22 00:01:46;;;;;;;;;30.50;24.50;;;;;8.43;60.73;103444.50;5036636;22;47040;-77
2022/01/22 00:04:12;;;;;;;;;35.25;24.75;;;;;8.40;60.55;103439.94;5026259;28;45985;-78
2022/01/22 00:06:37;;;;;;;;;22.50;20.25;;;;;8.37;60.42;103430.97;5016170;28;45453;-77
2022/01/22 00:09:03;;;;;;;;;23.00;20.50;;;;;8.46;60.42;103438.50;5017112;28;45870;-76
2022/01/22 00:11:35;;;;;;;;;25.25;21.75;;;;;8.43;60.33;103433.06;5024089;28;47306;-78
2022/01/22 00:16:44;;;;;;;;;25.25;20.00;;;;;8.42;60.67;103431.25;5016134;28;45429;-77
2022/01/22 00:19:10;;;;;;;;;21.75;20.50;;;;;8.47;60.64;103433.38;5030702;22;53958;-76
2022/01/22 00:21:36;;;;;;;;;23.25;19.00;;;;;8.47;60.60;103427.16;5053394;22;47310;-77
2022/01/22 00:24:02;;;;;;;;;29.25;21.00;;;;;8.47;60.85;103422.84;5033333;22;45474;-78
2022/01/22 00:26:28;;;;;;;;;24.00;20.75;;;;;8.47;60.91;103422.84;5025328;22;45706;-76
2022/01/22 00:28:53;;;;;;;;;26.00;21.50;;;;;8.48;60.63;103427.28;5043963;22;45427;-77
2022/01/22 00:31:19;;;;;;;;;29.25;25.25;;;;;8.49;60.95;103425.53;5023070;22;61901;-76
2022/01/22 00:33:44;;;;;;;;;20.50;18.75;;;;;8.51;60.68;103426.53;5049032;22;55870;-76
2022/01/22 00:36:09;;;;;;;;;27.00;20.25;;;;;8.49;60.71;103413.28;5051668;22;57047;-77
2022/01/22 00:38:35;;;;;;;;;27.25;18.25;;;;;8.47;60.81;103407.03;5059718;22;45899;-77
2022/01/22 00:41:00;;;;;;;;;20.50;17.75;;;;;8.46;60.74;103415.72;5062577;22;58645;-77
2022/01/22 00:48:26;;;;;;;;;24.75;21.00;;;;;8.46;60.53;103414.81;5042984;22;46190;-76
2022/01/22 00:50:55;;;;;;;;;21.00;20.00;;;;;8.47;60.60;103419.25;5014066;28;57541;-76
2022/01/22 00:53:20;;;;;;;;;19.50;18.50;;;;;8.47;60.56;103414.00;5027035;22;45633;-77
2022/01/22 00:55:46;;;;;;;;;21.00;18.25;;;;;8.47;60.58;103421.88;5049944;22;57079;-77
2022/01/22 00:58:12;;;;;;;;;17.50;17.50;;;;;8.45;60.73;103415.63;5045588;22;49406;-76
2022/01/22 01:03:08;;;;;;;;;30.50;22.00;;;;;8.46;60.42;103425.34;5038674;22;45477;-76
2022/01/22 01:05:34;;;;;;;;;24.75;20.50;;;;;8.45;60.55;103428.81;5031819;22;45424;-76
2022/01/22 01:08:00;;;;;;;;;22.25;17.00;;;;;8.46;60.59;103422.72;5038297;22;45818;-76
2022/01/22 01:10:25;;;;;;;;;27.25;21.00;;;;;8.46;60.55;103431.53;5032697;22;45616;-77
2022/01/22 01:12:52;;;;;;;;;24.50;21.75;;;;;8.46;60.81;103417.44;5060722;22;45405;-77
2022/01/22 01:34:14;;;;;;;;;24.50;19.00;;;;;8.41;60.46;103401.38;5026382;22;45540;-76
2022/01/22 01:36:39;;;;;;;;;18.50;17.00;;;;;8.41;60.38;103401.38;5022672;22;45626;-77
2022/01/22 01:39:07;;;;;;;;;23.00;17.25;;;;;8.42;60.56;103403.22;5039506;22;45575;-76
2022/01/22 01:41:43;;;;;;;;;18.25;16.00;;;;;8.37;60.65;103384.50;5047552;22;47007;-77
2022/01/22 01:44:10;;;;;;;;;20.75;19.00;;;;;8.40;60.32;103404.81;5028493;22;45899;-77
2022/01/22 01:49:04;;;;;;;;;24.00;16.25;;;;;8.40;60.62;103391.66;5049260;22;63769;-78
2022/01/22 01:51:32;;;;;;;;;16.50;15.00;;;;;8.43;60.61;103399.75;5032933;28;46572;-78
2022/01/22 01:54:23;;;;;;;;;13.75;13.75;;;;;8.44;60.62;103408.56;5034917;28;47135;-77
2022/01/22 01:59:10;;;;;;;;;23.25;18.25;;;;;8.44;60.45;103417.38;5055020;22;45439;-78
2022/01/22 02:01:35;;;;;;;;;24.50;18.50;;;;;8.45;60.46;103407.75;5063561;22;46063;-77
2022/01/22 02:04:01;;;;;;;;;17.50;17.50;;;;;8.44;60.50;103420.00;5031671;22;60599;-77
2022/01/22 02:06:26;;;;;;;;;15.75;15.25;;;;;8.44;60.41;103411.19;5034447;22;45680;-76
2022/01/22 02:08:53;;;;;;;;;25.75;17.50;;;;;8.44;60.28;103412.09;5043996;22;48515;-77
2022/01/22 02:11:20;;;;;;;;;22.00;18.75;;;;;8.45;60.25;103418.25;5039410;22;46207;-76
2022/01/22 02:14:01;;;;;;;;;23.00;18.75;;;;;8.44;60.57;103404.19;5041213;22;45836;-77
2022/01/22 02:24:07;;;;;;;;;25.50;20.00;;;;;8.39;60.36;103389.84;5058178;22;45413;-76
2022/01/22 02:29:07;;;;;;;;;22.00;19.25;;;;;8.45;60.31;103389.31;5031345;22;46751;-77
2022/01/22 02:31:40;;;;;;;;;20.75;15.50;;;;;8.46;60.53;103397.28;5022935;22;45765;-76
2022/01/22 02:34:23;;;;;;;;;28.75;20.50;;;;;8.46;60.46;103399.91;5050122;22;45489;-77
2022/01/22 02:39:20;;;;;;;;;21.25;15.25;;;;;8.44;60.54;103405.94;5040868;22;45731;-78
2022/01/22 02:41:46;;;;;;;;;23.75;18.50;;;;;8.45;60.46;103402.47;5041141;22;46537;-77
2022/01/22 02:44:14;;;;;;;;;20.25;18.75;;;;;8.40;60.67;103389.03;5040680;22;45514;-77
2022/01/22 02:46:42;;;;;;;;;23.50;20.50;;;;;8.48;60.66;103400.03;5021798;23;45367;-77
2022/01/22 02:49:08;;;;;;;;;26.25;20.50;;;;;8.49;60.53;103392.22;5012421;28;45466;-77
2022/01/22 02:51:33;;;;;;;;;19.50;16.00;;;;;8.49;60.44;103386.97;5017295;28;45559;-76
2022/01/22 02:54:00;;;;;;;;;20.25;16.00;;;;;8.51;60.36;103387.03;5021251;28;45788;-76
2022/01/22 02:56:25;;;;;;;;;19.50;17.25;;;;;8.50;60.16;103382.59;5038437;28;45577;-77
2022/01/22 02:58:51;;;;;;;;;21.00;15.25;;;;;8.44;60.52;103375.25;5019959;28;45471;-76
2022/01/22 03:01:18;;;;;;;;;17.75;16.25;;;;;8.45;60.41;103376.13;5024932;28;47197;-76
2022/01/22 03:03:43;;;;;;;;;19.50;15.50;;;;;8.44;60.52;103380.50;5022791;28;45456;-78
2022/01/22 03:06:09;;;;;;;;;21.75;18.25;;;;;8.45;60.70;103381.41;5032646;22;45561;-76
2022/01/22 03:08:34;;;;;;;;;20.00;16.00;;;;;8.47;60.72;103378.06;5025648;22;45548;-77
2022/01/22 03:11:04;;;;;;;;;21.25;17.00;;;;;8.48;60.68;103376.34;5039998;22;46809;-75
2022/01/22 03:16:45;;;;;;;;;21.00;16.25;;;;;8.47;60.85;103380.69;5038642;22;45431;-77
2022/01/22 03:19:09;;;;;;;;;18.00;17.25;;;;;8.49;60.64;103376.44;5047381;22;46064;-76
2022/01/22 03:21:42;;;;;;;;;21.50;17.50;;;;;8.50;60.73;103387.88;5050400;22;47578;-76
2022/01/22 03:29:13;;;;;;;;;20.00;16.25;;;;;8.51;60.61;103379.13;5045476;22;45769;-76
2022/01/22 03:31:41;;;;;;;;;18.00;12.25;;;;;8.42;60.83;103370.72;5033773;22;46942;-76
2022/01/22 03:34:06;;;;;;;;;21.75;13.25;;;;;8.51;60.46;103380.03;5059887;22;45547;-76
2022/01/22 03:36:33;;;;;;;;;26.00;17.75;;;;;8.51;60.74;103379.13;5040346;22;45468;-76
2022/01/22 03:39:00;;;;;;;;;19.25;15.50;;;;;8.47;60.48;103378.06;5028565;22;46203;-76
2022/01/22 03:41:25;;;;;;;;;15.50;15.25;;;;;8.51;60.77;103385.31;5030573;22;47996;-76
2022/01/22 03:43:52;;;;;;;;;18.00;16.00;;;;;8.51;60.71;103384.41;5039882;22;45818;-75
2022/01/22 03:46:17;;;;;;;;;20.00;16.00;;;;;8.53;60.58;103388.06;5023600;23;47890;-77
2022/01/22 03:48:43;;;;;;;;;20.50;16.00;;;;;8.53;60.44;103395.97;5049174;22;46641;-76
2022/01/22 03:51:08;;;;;;;;;17.50;15.25;;;;;8.52;60.82;103400.31;5044947;22;62753;-76
2022/01/22 03:53:34;;;;;;;;;23.50;17.00;;;;;8.53;60.78;103388.97;5050158;22;46265;-76
2022/01/22 03:56:03;;;;;;;;;19.50;15.50;;;;;8.53;60.87;103385.44;5050004;22;50153;-76
2022/01/22 03:58:34;;;;;;;;;19.50;17.25;;;;;8.50;60.90;103383.50;5026591;22;47059;-78
2022/01/22 04:03:39;;;;;;;;;20.50;15.25;;;;;8.54;60.79;103388.16;5031650;22;46458;-76
2022/01/22 04:08:47;;;;;;;;;17.00;13.50;;;;;8.54;60.78;103384.59;5040813;22;45966;-77
2022/01/22 04:11:15;;;;;;;;;17.50;17.50;;;;;8.59;60.95;103391.06;5030396;22;47559;-76
2022/01/22 04:13:42;;;;;;;;;17.75;13.00;;;;;8.57;60.89;103390.94;5034028;22;45368;-76
2022/01/22 04:16:08;;;;;;;;;19.75;14.75;;;;;8.57;61.26;103375.13;5027631;22;45768;-76
2022/01/22 04:28:36;;;;;;;;;14.50;14.00;;;;;8.54;60.83;103372.34;5042371;22;45403;-77
2022/01/22 04:31:02;;;;;;;;;16.00;12.50;;;;;8.56;60.92;103378.59;5049179;22;64643;-76
2022/01/22 04:33:27;;;;;;;;;18.00;15.25;;;;;8.55;61.13;103386.41;5047977;22;59327;-76
2022/01/22 04:35:53;;;;;;;;;14.75;11.25;;;;;8.57;61.27;103377.78;5043017;22;52185;-76
2022/01/22 04:38:18;;;;;;;;;15.75;12.75;;;;;8.58;61.14;103384.88;5028705;22;45608;-76
2022/01/22 04:40:43;;;;;;;;;19.75;12.00;;;;;8.60;61.11;103383.25;5044771;22;58065;-76
2022/01/22 04:43:10;;;;;;;;;14.50;13.00;;;;;8.55;61.32;103367.97;5015079;28;45466;-76
2022/01/22 04:56:13;;;;;;;;;15.50;13.50;;;;;8.68;61.17;103381.03;5020923;23;45801;-77
2022/01/22 04:58:38;;;;;;;;;11.00;8.25;;;;;8.69;61.26;103376.72;5048523;22;56296;-78
2022/01/22 05:01:04;;;;;;;;;20.50;15.75;;;;;8.68;61.22;103383.69;5049776;22;46954;-76
2022/01/22 05:03:29;;;;;;;;;16.75;15.75;;;;;8.67;61.10;103387.13;5032694;22;57373;-78
2022/01/22 05:05:55;;;;;;;;;17.75;15.50;;;;;8.69;61.20;103374.09;5034659;22;45889;-79
2022/01/22 05:08:20;;;;;;;;;18.50;15.00;;;;;8.70;61.33;103375.91;5046183;22;55272;-77
2022/01/22 05:10:46;;;;;;;;;24.75;14.00;;;;;8.70;61.17;103389.97;5022479;22;63923;-77
2022/01/22 05:13:11;;;;;;;;;20.25;17.50;;;;;8.71;61.22;103383.88;5014169;28;59786;-75
2022/01/22 05:15:36;;;;;;;;;16.25;13.00;;;;;8.70;61.22;103381.16;5028175;22;57784;-76
2022/01/22 05:18:06;;;;;;;;;19.25;16.25;;;;;8.73;61.13;103382.22;5008726;22;1165446;-76
2022/01/22 05:20:39;;;;;;;;;20.75;15.50;;;;;8.73;61.08;103382.22;5029403;28;46608;-78
2022/01/22 05:23:13;;;;;;;;;24.00;17.00;;;;;8.74;61.32;103377.91;5043908;22;45549;-76
2022/01/22 05:25:47;;;;;;;;;13.50;13.25;;;;;8.75;61.27;103387.63;5041960;22;45562;-78
2022/01/22 05:28:58;;;;;;;;;19.75;15.25;;;;;8.75;60.95;103385.88;5005906;22;45419;-76
2022/01/22 05:38:57;;;;;;;;;19.25;13.25;;;;;8.76;61.23;103395.59;5034727;22;45594;-77
2022/01/22 05:41:23;;;;;;;;;21.00;17.75;;;;;8.75;60.83;103388.53;5047130;22;45934;-76
2022/01/22 05:43:48;;;;;;;;;17.75;15.75;;;;;8.74;60.99;103394.63;5029237;22;63182;-78
2022/01/22 05:46:14;;;;;;;;;20.25;17.75;;;;;8.76;61.12;103389.44;5045671;22;46039;-76
2022/01/22 05:48:39;;;;;;;;;19.50;17.75;;;;;8.77;61.29;103392.16;5024450;22;48569;-76
2022/01/22 05:51:05;;;;;;;;;18.75;17.00;;;;;8.78;61.19;103390.41;5021985;22;52176;-76
2022/01/22 05:53:48;;;;;;;;;21.75;20.00;;;;;8.78;61.20;103395.69;5043482;22;45911;-77
2022/01/22 06:01:34;;;;;;;;;22.25;18.00;;;;;8.79;60.94;103398.44;5036495;22;45381;-77
2022/01/22 06:03:59;;;;;;;;;24.00;20.00;;;;;8.81;60.88;103395.88;5012309;28;61149;-77
2022/01/22 06:06:24;;;;;;;;;25.00;21.25;;;;;8.81;60.93;103398.50;5012378;28;57853;-76
2022/01/22 06:08:54;;;;;;;;;24.00;20.50;;;;;8.77;60.84;103400.03;5013712;28;45508;-76
2022/01/22 06:11:25;;;;;;;;;27.25;18.00;;;;;8.75;60.90;103403.41;5005019;28;47488;-77
2022/01/22 06:13:50;;;;;;;;;24.50;21.75;;;;;8.80;60.93;103404.59;5012497;28;45762;-77
2022/01/22 06:16:17;;;;;;;;;24.00;19.00;;;;;8.78;61.06;103409.75;5012083;28;45402;-76
2022/01/22 06:18:43;;;;;;;;;28.25;21.00;;;;;8.79;61.06;103410.66;5016242;28;45513;-78
2022/01/22 06:21:09;;;;;;;;;24.00;24.00;;;;;8.79;60.96;103403.69;5033200;22;46635;-77
2022/01/22 06:26:05;;;;;;;;;27.25;21.75;;;;;8.81;60.89;103402.06;5059915;22;45585;-77
2022/01/22 06:28:30;;;;;;;;;27.25;20.25;;;;;8.78;60.83;103396.59;5024785;22;46754;-77
2022/01/22 06:30:59;;;;;;;;;22.25;21.25;;;;;8.81;60.85;103404.69;5058173;22;54742;31
2022/01/22 06:38:26;;;;;;;;;27.00;22.50;;;;;8.82;60.94;103403.88;5046643;22;47517;-77
2022/01/22 06:43:35;;;;;;;;;28.25;23.50;;;;;8.83;61.25;103416.22;5013419;28;45426;-77
2022/01/22 06:46:01;;;;;;;;;24.50;19.75;;;;;8.83;60.96;103408.31;5017650;28;57124;-77
2022/01/22 06:48:26;;;;;;;;;38.50;23.25;;;;;8.84;60.82;103412.78;5032099;22;49577;-77
2022/01/22 06:50:53;;;;;;;;;28.25;24.25;;;;;8.80;60.81;103401.97;5048989;22;51652;-76
2022/01/22 06:53:18;;;;;;;;;24.00;21.00;;;;;8.83;60.96;103410.94;5044241;22;45985;-76
2022/01/22 06:56:03;;;;;;;;;29.75;24.75;;;;;8.84;61.00;103411.84;5044712;22;45789;-76
2022/01/22 06:58:28;;;;;;;;;28.50;23.50;;;;;8.84;60.73;103414.47;5037831;22;45982;-76
2022/01/22 07:00:54;;;;;;;;;28.25;23.00;;;;;8.84;60.78;103412.78;5046447;22;45631;-76
2022/01/22 07:03:20;;;;;;;;;27.50;20.00;;;;;8.82;60.85;103416.13;5032491;28;45497;-77
2022/01/22 07:05:45;;;;;;;;;29.75;25.75;;;;;8.85;60.69;103416.31;5032649;28;45476;-76
2022/01/22 07:08:10;;;;;;;;;25.50;22.75;;;;;8.85;60.86;103417.22;5027432;28;54396;-77
2022/01/22 07:10:36;;;;;;;;;32.00;22.75;;;;;8.84;60.90;103412.78;5033302;28;63712;-77
2022/01/22 07:13:01;;;;;;;;;29.00;20.75;;;;;8.86;60.78;103420.78;5032482;28;45355;-78
2022/01/22 07:15:28;;;;;;;;;32.50;25.25;;;;;8.82;60.91;103409.13;5031730;28;46026;-76
2022/01/22 07:17:55;;;;;;;;;26.25;23.50;;;;;8.88;60.63;103416.50;5030761;28;45684;-76
2022/01/22 07:20:27;;;;;;;;;22.25;22.25;;;;;8.89;60.88;103413.03;5032792;28;46909;-76
2022/01/22 07:25:41;;;;;;;;;30.25;24.50;;;;;8.88;60.78;103413.84;4999193;28;45461;-79
2022/01/22 07:28:06;;;;;;;;;29.25;26.00;;;;;8.87;60.73;103420.84;5011199;28;45650;-77
2022/01/22 07:30:32;;;;;;;;;27.75;22.75;;;;;8.89;60.73;103416.59;5020453;28;54831;-78
2022/01/22 07:32:57;;;;;;;;;36.00;26.00;;;;;8.86;60.78;103419.03;5020997;28;45566;-78
2022/01/22 07:35:23;;;;;;;;;32.00;29.00;;;;;8.87;60.86;103426.13;5012160;28;45465;-77
2022/01/22 07:37:48;;;;;;;;;26.25;23.75;;;;;8.88;60.84;103427.94;5019564;28;52524;-76
2022/01/22 07:40:14;;;;;;;;;28.50;24.50;;;;;8.91;60.84;103429.84;5019748;28;46167;-78
2022/01/22 07:42:40;;;;;;;;;40.25;28.00;;;;;8.84;60.71;103427.66;5015149;28;45439;-78
2022/01/22 07:45:06;;;;;;;;;34.50;29.50;;;;;8.87;60.60;103436.66;5024636;28;45382;-78
2022/01/22 07:47:31;;;;;;;;;36.50;27.00;;;;;8.90;60.83;103434.22;5018565;28;45552;-77
2022/01/22 07:49:56;;;;;;;;;35.50;28.75;;;;;8.87;60.70;103426.13;5016663;28;59283;-78
2022/01/22 07:52:22;;;;;;;;;30.75;27.50;;;;;8.92;60.81;103431.66;5021714;28;45587;-77
2022/01/22 07:54:48;;;;;;;;;36.75;30.25;;;;;8.92;60.78;103435.22;5029106;22;45835;-77
2022/01/22 07:57:13;;;;;;;;;33.50;25.00;;;;;8.91;60.85;103436.03;5017959;28;45509;-77
2022/01/22 07:59:39;;;;;;;;;35.75;28.75;;;;;8.94;60.52;103445.81;5006895;28;46823;-77
2022/01/22 08:02:04;;;;;;;;;40.50;29.00;;;;;8.90;60.67;103430.69;5031152;22;62544;-77
2022/01/22 08:04:30;;;;;;;;;29.00;26.50;;;;;8.93;60.59;103434.38;5021523;22;45444;-77
2022/01/22 08:06:57;;;;;;;;;29.00;26.75;;;;;8.92;60.59;103445.75;5039678;22;46801;-77
2022/01/22 08:09:22;;;;;;;;;38.50;32.75;;;;;8.94;60.22;103440.56;5014448;22;46919;-77
2022/01/22 08:11:48;;;;;;;;;32.00;27.00;;;;;8.96;60.72;103443.31;5013325;28;60041;-77
2022/01/22 08:14:14;;;;;;;;;34.50;27.00;;;;;8.97;60.53;103450.41;5011502;28;46112;-78
2022/01/22 08:16:39;;;;;;;;;40.50;27.00;;;;;8.94;60.77;103435.28;4998685;28;45558;-79
2022/01/22 08:19:05;;;;;;;;;41.00;31.00;;;;;8.99;60.41;103449.66;5050038;22;45669;-78
2022/01/22 08:21:30;;;;;;;;;36.50;26.25;;;;;9.00;60.30;103454.13;5035439;28;45496;-78
2022/01/22 08:23:56;;;;;;;;;39.00;33.75;;;;;9.01;60.50;103450.66;5033279;28;45514;-81
2022/01/22 08:26:26;;;;;;;;;34.75;32.75;;;;;9.00;60.20;103451.50;5016312;28;45419;-88
2022/01/22 08:28:55;;;;;;;;;34.50;26.00;;;;;8.97;59.23;103466.19;5000178;28;46515;-78
2022/01/22 08:36:40;;;;;;;;;35.00;24.75;;;;;8.45;60.36;103465.66;5034456;28;45498;-81
2022/01/22 08:39:06;;;;;;;;;33.25;28.75;;;;;8.28;60.91;103469.84;5112176;23;46543;-76
2022/01/22 08:41:32;;;;;;;;;28.00;23.75;;;;;8.14;61.25;103461.97;5034144;28;45428;-76
2022/01/22 08:44:00;;;;;;;;;36.00;29.00;;;;;8.07;62.03;103475.56;5032957;28;45538;-77
2022/01/22 08:46:26;;;;;;;;;33.25;28.25;;;;;7.97;62.27;103475.78;5033664;28;45603;-83
2022/01/22 08:48:51;;;;;;;;;28.00;23.75;;;;;7.93;62.21;103483.38;4997870;28;46513;-77
2022/01/22 08:51:17;;;;;;;;;30.25;26.75;;;;;7.87;62.63;103476.00;5033115;28;59835;-81
2022/01/22 08:53:42;;;;;;;;;31.25;28.50;;;;;7.76;62.38;103467.44;5032908;28;45917;-81
2022/01/22 08:56:09;;;;;;;;;30.50;24.50;;;;;7.74;63.29;103476.94;4997919;28;45786;-82
2022/01/22 08:58:35;;;;;;;;;37.50;30.75;;;;;7.78;62.91;103475.44;5032010;28;47346;-81
2022/01/22 09:01:00;;;;;;;;;29.00;27.25;;;;;7.86;62.85;103488.25;5014307;28;45829;-79
2022/01/22 09:03:26;;;;;;;;;33.25;25.25;;;;;7.95;62.83;103489.69;5015397;28;56200;-80
2022/01/22 09:05:51;;;;;;;;;48.25;34.75;;;;;8.06;62.24;103499.16;5033296;28;45487;-79
2022/01/22 09:08:17;;;;;;;;;34.25;30.00;;;;;8.19;62.52;103504.38;5004206;28;46390;-81
2022/01/22 09:10:42;;;;;;;;;37.50;31.25;;;;;8.24;62.18;103488.88;5032893;28;45577;-80
2022/01/22 09:13:09;;;;;;;;;35.00;31.00;;;;;8.35;61.87;103498.38;5013550;28;45929;-80
2022/01/22 09:15:34;;;;;;;;;32.25;26.50;;;;;8.38;61.70;103494.25;5015570;28;45646;-80
2022/01/22 09:18:19;;;;;;;;;31.50;26.00;;;;;8.49;61.71;103499.28;5015065;28;46215;-81
2022/01/22 09:23:22;;;;;;;;;34.25;31.00;;;;;8.62;61.31;103499.19;5016884;28;45517;-81
2022/01/22 09:25:51;;;;;;;;;28.25;26.00;;;;;8.65;61.06;103499.41;5015118;28;45661;-80
2022/01/22 09:28:20;;;;;;;;;29.50;22.75;;;;;8.56;60.86;103473.41;5002308;28;46714;-81
2022/01/22 09:30:47;;;;;;;;;34.75;30.50;;;;;8.75;60.98;103506.16;5015700;28;45511;-80
2022/01/22 09:33:13;;;;;;;;;29.00;27.00;;;;;8.79;60.66;103508.13;5015469;28;45655;-80
2022/01/22 09:35:38;;;;;;;;;36.50;27.00;;;;;8.84;61.05;103511.97;5033854;28;45762;-81
2022/01/22 09:38:03;;;;;;;;;33.75;32.00;;;;;8.87;60.41;103518.34;5031659;28;55911;-80
2022/01/22 09:40:29;;;;;;;;;31.00;25.50;;;;;8.92;60.37;103518.63;5014409;28;54397;-81
2022/01/22 09:42:56;;;;;;;;;43.00;33.25;;;;;8.93;60.38;103518.72;5033273;28;45720;-81
2022/01/22 09:45:22;;;;;;;;;33.25;25.75;;;;;8.93;60.29;103504.63;5012224;28;45990;-81
2022/01/22 09:47:47;;;;;;;;;30.00;27.50;;;;;9.01;60.06;103513.00;5030644;28;46590;-79
2022/01/22 09:50:13;;;;;;;;;34.50;29.75;;;;;9.03;60.22;103519.28;5031269;28;46232;-80
2022/01/22 09:52:39;;;;;;;;;34.25;29.25;;;;;9.02;59.97;103515.72;5014584;28;45567;-80
2022/01/22 09:55:05;;;;;;;;;33.00;29.00;;;;;9.08;60.63;103526.63;5015134;28;45598;-78
2022/01/22 09:57:33;;;;;;;;;38.00;31.25;;;;;9.13;60.59;103522.56;5032664;28;47616;-78
2022/01/22 09:59:59;;;;;;;;;23.25;20.25;;;;;9.18;60.14;103515.84;5032245;28;45655;-80
2022/01/22 10:02:24;;;;;;;;;41.75;32.50;;;;;9.22;60.44;103521.31;5032098;28;57864;-80
2022/01/22 10:04:52;;;;;;;;;36.25;29.75;;;;;9.26;60.26;103516.28;5032160;28;51193;-77
2022/01/22 10:07:26;;;;;;;;;34.00;31.00;;;;;9.30;60.23;103515.63;5031984;28;46236;-78
2022/01/22 10:10:02;;;;;;;;;29.50;24.50;;;;;9.31;60.16;103524.47;5030997;28;53588;-78
2022/01/22 10:12:29;;;;;;;;;42.00;31.25;;;;;9.38;60.02;103530.19;5015592;28;45491;-78
2022/01/22 10:15:05;;;;;;;;;41.25;28.25;;;;;9.41;59.90;103526.81;5032430;28;45882;-78
2022/01/22 10:17:49;;;;;;;;;33.00;29.00;;;;;9.47;60.11;103521.91;5032455;28;46914;-78
2022/01/22 10:20:36;;;;;;;;;30.50;25.75;;;;;9.52;60.08;103531.00;5028075;28;45724;-78
2022/01/22 10:23:16;;;;;;;;;32.00;29.50;;;;;9.54;60.08;103526.75;5013599;28;46637;-77
2022/01/22 10:25:44;;;;;;;;;44.50;32.25;;;;;9.59;59.68;103527.00;5013820;28;45652;-77
2022/01/22 10:28:15;;;;;;;;;29.75;24.00;;;;;9.62;59.59;103537.72;5031804;28;46626;-79
2022/01/22 10:30:42;;;;;;;;;31.75;28.25;;;;;9.63;59.27;103537.81;5013819;28;45525;-79
2022/01/22 10:33:37;;;;;;;;;26.50;24.00;;;;;9.63;59.48;103529.88;5013725;28;45940;-79
2022/01/22 10:36:09;;;;;;;;;34.00;23.50;;;;;9.69;59.44;103540.81;5013865;28;45514;-79
2022/01/22 10:38:42;;;;;;;;;34.50;28.25;;;;;9.69;59.62;103522.34;5024352;28;46844;-79
2022/01/22 10:41:07;;;;;;;;;33.75;26.25;;;;;9.78;59.30;103539.53;5014601;28;45778;-78
2022/01/22 10:43:34;;;;;;;;;26.00;23.25;;;;;9.79;59.03;103534.31;5029647;28;45622;-78
2022/01/22 10:46:31;;;;;;;;;34.25;25.75;;;;;9.82;58.86;103534.50;5029712;28;45609;-79
2022/01/22 10:49:19;;;;;;;;;34.00;25.50;;;;;9.85;58.86;103533.75;5030841;28;45978;-78
2022/01/22 10:51:49;;;;;;;;;31.50;29.00;;;;;9.88;58.92;103533.94;5024117;28;45544;-79
2022/01/22 10:54:16;;;;;;;;;31.00;25.25;;;;;9.87;58.82;103517.22;5014640;28;46273;-78
2022/01/22 10:56:41;;;;;;;;;30.50;26.50;;;;;9.92;58.41;103523.66;5014166;28;45565;-77
2022/01/22 10:59:11;;;;;;;;;32.25;26.25;;;;;9.90;58.45;103520.00;5031160;28;47335;-78
2022/01/22 11:01:56;;;;;;;;;37.75;26.25;;;;;9.93;58.57;103520.19;5024149;28;45484;-78
2022/01/22 11:04:22;;;;;;;;;35.50;28.00;;;;;9.96;58.56;103517.75;5028108;28;45534;-78
2022/01/22 11:06:52;;;;;;;;;35.50;30.00;;;;;10.01;58.57;103519.72;5027645;28;45543;-78
2022/01/22 11:09:18;;;;;;;;;26.00;24.50;;;;;10.05;58.38;103521.72;5011658;28;46598;-80
2022/01/22 11:11:43;;;;;;;;;22.50;20.25;;;;;10.10;58.24;103518.50;4994357;28;45597;-79
2022/01/22 11:14:10;;;;;;;;;35.75;30.00;;;;;10.11;58.02;103516.75;5030926;28;46104;-80
2022/01/22 11:16:36;;;;;;;;;39.00;30.25;;;;;10.07;58.32;103506.88;5007230;28;45595;-79
2022/01/22 11:19:02;;;;;;;;;48.00;38.50;;;;;10.08;58.23;103504.31;5013222;28;45606;-81
2022/01/22 11:21:27;;;;;;;;;61.00;48.25;;;;;10.09;57.97;103511.41;4979923;28;45855;-81
2022/01/22 11:23:53;;;;;;;;;53.75;41.75;;;;;10.08;58.47;103493.75;5013271;28;55868;-78
2022/01/22 11:26:19;;;;;;;;;31.25;28.50;;;;;10.17;58.13;103507.47;5024056;28;45696;-80
2022/01/22 11:28:46;;;;;;;;;39.00;28.75;;;;;10.19;57.96;103503.19;4996345;28;45703;-78
2022/01/22 11:31:14;;;;;;;;;28.50;25.00;;;;;10.22;58.03;103500.69;5030730;28;45792;-80
2022/01/22 11:33:40;;;;;;;;;28.50;24.25;;;;;10.27;58.01;103493.06;5000473;28;45740;-81
2022/01/22 11:36:09;;;;;;;;;29.75;25.25;;;;;10.31;57.65;103510.00;5012661;28;45604;-81
2022/01/22 11:38:39;;;;;;;;;31.25;23.75;;;;;10.32;57.70;103496.88;5013578;28;46757;-78
2022/01/22 11:41:05;;;;;;;;;36.75;26.50;;;;;10.37;57.62;103503.31;4994868;28;45498;-78
2022/01/22 11:44:10;;;;;;;;;32.00;26.50;;;;;10.34;57.75;103500.50;5031450;28;45494;-78
2022/01/22 11:46:41;;;;;;;;;25.75;24.25;;;;;10.36;57.75;103498.84;5028658;28;45607;-78
2022/01/22 11:49:28;;;;;;;;;38.50;30.00;;;;;10.32;57.51;103485.41;5010695;28;47470;-79
2022/01/22 11:52:07;;;;;;;;;29.00;23.00;;;;;10.35;57.60;103494.41;5031211;28;45679;-78
2022/01/22 11:54:54;;;;;;;;;26.00;23.50;;;;;10.33;57.53;103487.19;5018985;28;45531;-76
2022/01/22 11:57:20;;;;;;;;;37.00;29.25;;;;;10.35;57.81;103482.94;5034900;28;47096;-77
2022/01/22 11:59:46;;;;;;;;;25.50;24.00;;;;;10.39;57.09;103483.19;5034420;28;47931;-77
2022/01/22 12:02:15;;;;;;;;;25.25;23.25;;;;;10.43;57.37;103489.53;5034439;28;45944;-77
2022/01/22 12:04:40;;;;;;;;;30.00;23.00;;;;;10.39;57.05;103487.56;5034194;28;45443;-79
2022/01/22 12:07:07;;;;;;;;;33.25;23.75;;;;;10.39;57.48;103479.66;5035121;28;45415;-78
2022/01/22 12:10:04;;;;;;;;;33.25;26.50;;;;;10.38;57.44;103470.78;5033963;28;47745;-76
2022/01/22 12:15:14;;;;;;;;;31.00;25.00;;;;;10.46;57.37;103471.22;5034442;28;45368;-81
2022/01/22 12:23:13;;;;;;;;;29.75;24.50;;;;;10.53;57.46;103472.44;5030339;28;45534;-80
2022/01/22 12:25:39;;;;;;;;;30.75;25.25;;;;;10.58;57.28;103468.31;5032892;28;46019;-80
2022/01/22 12:28:08;;;;;;;;;32.25;25.75;;;;;10.57;57.24;103458.56;5035156;28;45665;-80
2022/01/22 12:30:38;;;;;;;;;29.25;24.00;;;;;10.63;57.01;103470.38;5014651;28;46746;-78
2022/01/22 12:33:06;;;;;;;;;27.75;22.75;;;;;10.63;57.02;103462.44;5034736;28;45731;-77
2022/01/22 12:35:42;;;;;;;;;40.00;29.25;;;;;10.67;56.94;103460.88;5034563;28;45415;-78
2022/01/22 12:38:24;;;;;;;;;34.00;25.75;;;;;10.65;57.01;103452.88;5033148;28;45595;-77
2022/01/22 12:40:58;;;;;;;;;38.25;27.75;;;;;10.67;56.86;103453.84;5033516;28;46652;-76
2022/01/22 12:43:32;;;;;;;;;31.25;26.75;;;;;10.68;56.92;103446.84;5033525;28;45879;-77
2022/01/22 12:46:02;;;;;;;;;25.00;22.25;;;;;10.72;56.80;103441.78;5014039;28;45430;-77
2022/01/22 12:48:32;;;;;;;;;35.75;25.50;;;;;10.73;56.47;103446.25;5034800;28;45494;-76
2022/01/22 12:51:08;;;;;;;;;24.75;23.75;;;;;10.74;56.66;103439.22;5016825;28;46562;-78
2022/01/22 12:53:34;;;;;;;;;25.50;23.75;;;;;10.79;56.41;103445.66;5033859;28;45397;-79
2022/01/22 12:58:29;;;;;;;;;30.25;23.50;;;;;10.76;56.20;103442.88;5034558;28;45461;-78
2022/01/22 13:01:14;;;;;;;;;28.25;26.25;;;;;10.74;56.48;103437.47;5032944;28;45941;-78
2022/01/22 13:03:42;;;;;;;;;34.75;25.50;;;;;10.73;56.73;103440.06;5030112;28;45562;-78
2022/01/22 13:06:07;;;;;;;;;32.25;26.50;;;;;10.74;56.49;103431.28;5012241;28;45672;-79
2022/01/22 13:08:33;;;;;;;;;31.50;27.00;;;;;10.73;56.44;103432.13;5034074;28;46842;-79
2022/01/22 13:11:01;;;;;;;;;40.25;28.75;;;;;10.72;56.63;103427.69;5015721;28;46332;-80
2022/01/22 13:13:26;;;;;;;;;28.25;26.00;;;;;10.70;56.40;103429.31;5015716;28;45597;-79
2022/01/22 13:16:08;;;;;;;;;36.75;28.75;;;;;10.64;56.96;103419.34;5015746;28;45588;-80
2022/01/22 13:18:49;;;;;;;;;33.75;31.50;;;;;10.63;56.63;103428.09;5013083;28;45463;-79
2022/01/22 13:21:15;;;;;;;;;38.50;31.00;;;;;10.61;56.47;103431.50;5032107;28;47345;-79
2022/01/22 13:23:40;;;;;;;;;35.00;28.50;;;;;10.62;56.58;103433.31;5011587;28;45539;-79
2022/01/22 13:26:07;;;;;;;;;40.50;30.75;;;;;10.60;56.91;103411.16;5020746;28;45824;-79
2022/01/22 13:28:33;;;;;;;;;39.75;33.00;;;;;10.63;56.47;103427.19;5015077;28;45551;-79